Time;durP1;ratioP1;P1;durP2;ratioP2;P2;SDS_P1;SDS_P2;PMS_P1;PMS_P2;Temp;Humidity;BMP_temperature;BMP_pressure;BME280_temperature;BME280_humidity;BME280_pressure;Samples;Min_cycle;Max_cycle;Signal;HPM_P1;HPM_P2
2022/04/02 00:02:04;;;;;;;2.67;1.97;;;;;;;2.50;54.91;100653.78;4986961;28;20263;-57
2022/04/02 00:04:30;;;;;;;2.10;1.90;;;;;;;2.46;55.70;100658.00;4986208;28;20608;-57
2022/04/02 00:06:57;;;;;;;4.10;2.10;;;;;;;2.45;56.05;100658.81;4982473;28;20887;-58
2022/04/02 00:09:25;;;;;;;4.87;2.10;;;;;;;3.01;54.28;100662.19;4987449;28;20334;-56
2022/04/02 00:11:53;;;;;;;2.27;1.93;;;;;;;2.76;54.49;100663.19;4972518;28;20258;-57
2022/04/02 00:14:20;;;;;;;3.47;2.13;;;;;;;2.43;54.89;100663.09;4986473;28;20245;-57
2022/04/02 00:16:48;;;;;;;3.03;2.50;;;;;;;2.21;55.25;100664.16;4980946;28;20240;-57
2022/04/02 00:19:14;;;;;;;3.60;1.90;;;;;;;2.27;55.85;100664.31;4986248;28;20308;-57
2022/04/02 00:21:40;;;;;;;3.00;1.83;;;;;;;2.23;56.45;100659.88;4984731;28;20701;-57
2022/04/02 00:24:08;;;;;;;2.03;1.83;;;;;;;2.45;56.38;100666.59;4986299;28;20248;-56
2022/04/02 00:26:34;;;;;;;1.93;1.77;;;;;;;3.09;55.21;100670.22;4986146;28;20240;-57
2022/04/02 00:29:02;;;;;;;2.23;2.03;;;;;;;2.77;55.24;100661.50;4984781;28;20237;-57
2022/04/02 00:31:31;;;;;;;6.90;2.33;;;;;;;2.39;55.25;100669.88;4985624;28;20268;-56
2022/04/02 00:33:58;;;;;;;2.70;1.57;;;;;;;2.31;55.69;100666.16;4986313;28;20316;-57
2022/04/02 00:36:24;;;;;;;3.83;1.90;;;;;;;2.17;56.25;100676.91;4975254;28;20241;-57
2022/04/02 00:38:51;;;;;;;2.20;1.60;;;;;;;2.01;56.40;100671.25;4986865;28;20239;-57
2022/04/02 00:41:17;;;;;;;2.93;1.90;;;;;;;2.24;57.23;100663.34;4976644;28;20253;-57
2022/04/02 00:43:55;;;;;;;2.23;2.03;;;;;;;2.37;56.18;100663.78;4972667;28;20241;-57
2022/04/02 00:46:23;;;;;;;2.30;2.10;;;;;;;2.25;56.06;100665.13;4980216;28;20226;-59
2022/04/02 00:48:54;;;;;;;3.17;1.83;;;;;;;2.11;58.49;100657.78;4986659;28;20655;-57
2022/04/02 00:51:22;;;;;;;2.47;1.80;;;;;;;2.23;59.04;100659.88;4984749;28;20251;-58
2022/04/02 00:53:51;;;;;;;2.20;1.97;;;;;;;2.55;58.20;100665.16;4986371;28;20715;-56
2022/04/02 00:56:18;;;;;;;2.03;1.83;;;;;;;2.39;58.99;100675.06;4978232;28;20264;-57
2022/04/02 00:58:44;;;;;;;5.30;2.00;;;;;;;2.48;57.90;100660.63;4998160;28;20317;-57
2022/04/02 01:01:12;;;;;;;4.13;2.13;;;;;;;2.26;57.79;100672.06;4987494;28;20240;-57
2022/04/02 01:03:43;;;;;;;3.80;1.80;;;;;;;2.15;58.65;100669.13;4985665;28;20237;-57
2022/04/02 01:06:11;;;;;;;2.47;2.20;;;;;;;2.05;58.00;100669.66;4979039;28;20390;-57
2022/04/02 01:08:37;;;;;;;4.70;2.50;;;;;;;2.56;58.57;100672.09;4970199;28;20249;-57
2022/04/02 01:11:04;;;;;;;2.73;1.80;;;;;;;2.24;57.75;100669.38;4985024;28;20293;-58
2022/04/02 01:13:30;;;;;;;2.57;2.30;;;;;;;2.63;60.13;100669.75;4985425;28;20320;-56
2022/04/02 01:15:57;;;;;;;2.67;2.27;;;;;;;2.31;59.45;100673.94;4985572;28;20345;-57
2022/04/02 01:18:24;;;;;;;2.93;2.10;;;;;;;2.14;58.68;100672.50;4984593;28;20241;-58
2022/04/02 01:20:54;;;;;;;4.50;2.53;;;;;;;2.04;59.87;100680.84;4984672;28;20306;-57
2022/04/02 01:23:28;;;;;;;3.53;2.07;;;;;;;2.06;58.70;100679.16;4985724;28;20414;-57
2022/04/02 01:25:56;;;;;;;9.83;2.50;;;;;;;2.19;59.57;100681.34;4984668;28;20237;-56
2022/04/02 01:28:25;;;;;;;4.10;2.20;;;;;;;2.08;59.03;100683.56;4985615;28;20236;-56
2022/04/02 01:30:52;;;;;;;2.27;2.07;;;;;;;1.91;59.59;100689.91;4984310;28;20240;-57
2022/04/02 01:33:18;;;;;;;2.53;2.20;;;;;;;2.11;59.56;100690.56;4977328;28;20288;-56
2022/04/02 01:35:45;;;;;;;2.67;1.83;;;;;;;1.84;60.02;100683.66;4984935;28;20672;-57
2022/04/02 01:38:11;;;;;;;2.00;1.80;;;;;;;1.77;60.28;100681.69;4977297;28;20323;-57
2022/04/02 01:40:39;;;;;;;6.20;1.90;;;;;;;1.75;61.01;100688.50;4984251;28;20244;-57
2022/04/02 01:43:05;;;;;;;2.13;2.00;;;;;;;1.76;60.97;100679.94;4985264;28;20286;-57
2022/04/02 01:45:32;;;;;;;4.37;2.40;;;;;;;1.62;61.97;100683.78;4984845;28;20319;-57
2022/04/02 01:47:58;;;;;;;2.43;2.23;;;;;;;1.63;61.76;100680.34;4978621;28;20996;-57
2022/04/02 01:50:24;;;;;;;3.03;2.07;;;;;;;1.81;62.73;100688.72;4985275;28;20279;-57
2022/04/02 01:52:51;;;;;;;2.80;2.20;;;;;;;1.72;62.27;100679.75;4984051;28;20302;-57
2022/04/02 01:55:17;;;;;;;3.70;2.83;;;;;;;1.62;62.13;100681.19;4985080;28;21197;-56
2022/04/02 01:57:45;;;;;;;3.57;1.97;;;;;;;1.58;62.16;100679.28;4990896;28;20236;-56
2022/04/02 02:00:13;;;;;;;3.73;2.20;;;;;;;1.49;62.93;100677.28;4984534;28;20248;-57
2022/04/02 02:02:39;;;;;;;5.00;2.10;;;;;;;1.49;63.57;100684.16;4976042;28;20300;-57
2022/04/02 02:05:07;;;;;;;2.40;2.20;;;;;;;1.46;63.62;100678.88;4985301;28;20240;-57
2022/04/02 02:07:33;;;;;;;3.67;2.10;;;;;;;1.43;64.04;100682.22;4979278;28;20311;-57
2022/04/02 02:10:00;;;;;;;2.37;2.17;;;;;;;1.40;63.88;100680.44;4984330;28;20276;-57
2022/04/02 02:12:26;;;;;;;3.30;2.10;;;;;;;1.44;64.18;100676.25;4977219;28;20237;-58
2022/04/02 02:14:54;;;;;;;5.13;2.27;;;;;;;1.43;64.59;100679.66;4985143;28;20679;-58
2022/04/02 02:17:20;;;;;;;2.70;1.97;;;;;;;1.38;64.16;100682.06;4984434;28;20302;-57
2022/04/02 02:19:46;;;;;;;8.03;2.63;;;;;;;1.46;64.88;100681.47;4985159;28;20251;-57
2022/04/02 02:22:13;;;;;;;2.67;2.17;;;;;;;1.38;65.12;100683.78;4983253;28;20299;-57
2022/04/02 02:24:39;;;;;;;4.17;2.20;;;;;;;1.24;65.86;100688.47;4984785;28;20241;-58
2022/04/02 02:27:05;;;;;;;2.87;2.13;;;;;;;1.30;65.75;100687.78;4978534;28;20237;-56
2022/04/02 02:29:32;;;;;;;1.93;1.83;;;;;;;1.37;66.39;100679.41;4972937;28;20284;-58
2022/04/02 02:32:00;;;;;;;2.47;2.27;;;;;;;1.33;65.59;100688.78;4984735;28;20291;-57
2022/04/02 02:37:12;;;;;;;4.07;2.17;;;;;;;1.49;65.55;100682.44;4983724;28;20302;-57
2022/04/02 02:39:38;;;;;;;6.40;2.10;;;;;;;1.52;65.62;100679.97;4970838;28;20237;-57
2022/04/02 02:42:06;;;;;;;2.57;2.00;;;;;;;1.46;66.25;100682.34;4983796;28;20940;-57
2022/04/02 02:44:33;;;;;;;3.23;1.97;;;;;;;1.52;66.23;100679.09;4985418;28;20315;-58
2022/04/02 02:47:00;;;;;;;2.67;2.10;;;;;;;1.49;66.06;100679.88;4984239;28;20265;-56
2022/04/02 02:49:27;;;;;;;4.73;2.07;;;;;;;1.46;66.24;100684.94;4984844;28;20237;-56
2022/04/02 02:51:53;;;;;;;2.10;1.90;;;;;;;1.51;66.58;100687.66;4982641;28;20621;-56
2022/04/02 02:54:19;;;;;;;1.67;1.57;;;;;;;1.45;66.54;100687.47;4978806;28;20250;-57
2022/04/02 02:56:48;;;;;;;3.73;1.37;;;;;;;1.48;66.24;100687.59;4984639;28;20307;-56
2022/04/02 02:59:14;;;;;;;5.97;1.80;;;;;;;1.62;66.55;100689.81;4986496;28;20280;-57
2022/04/02 03:01:40;;;;;;;2.63;1.83;;;;;;;1.45;66.48;100685.75;4983785;28;20658;-57
2022/04/02 03:04:08;;;;;;;2.47;1.90;;;;;;;1.45;66.88;100692.66;4978965;28;20303;-56
2022/04/02 03:06:38;;;;;;;2.07;1.73;;;;;;;1.47;67.30;100690.97;4983604;28;20781;-56
2022/04/02 03:09:04;;;;;;;2.60;1.47;;;;;;;1.45;67.04;100682.31;4971659;28;20243;-57
2022/04/02 03:11:30;;;;;;;2.30;1.70;;;;;;;1.41;66.87;100692.53;4982884;28;20652;-56
2022/04/02 03:13:58;;;;;;;3.57;1.80;;;;;;;1.45;66.57;100693.53;4979416;28;20260;-57
2022/04/02 03:16:25;;;;;;;2.93;1.90;;;;;;;1.50;67.19;100691.09;4990536;28;20763;-57
2022/04/02 03:18:51;;;;;;;1.80;1.70;;;;;;;1.45;67.48;100688.34;4982831;28;20233;-57
2022/04/02 03:21:21;;;;;;;3.50;1.77;;;;;;;1.42;67.22;100690.81;4968996;28;20329;-57
2022/04/02 03:23:48;;;;;;;3.50;2.07;;;;;;;1.51;67.26;100687.66;4976441;28;20268;-57
2022/04/02 03:26:15;;;;;;;2.93;2.03;;;;;;;1.46;66.80;100699.56;4985923;28;20334;-57
2022/04/02 03:28:41;;;;;;;1.83;1.60;;;;;;;1.53;66.88;100696.38;4987262;28;20262;-57
2022/04/02 03:31:08;;;;;;;3.17;2.10;;;;;;;1.45;66.65;100695.25;4987565;28;20808;-58
2022/04/02 03:33:35;;;;;;;1.97;1.77;;;;;;;1.38;67.28;100697.59;4986784;28;20708;-58
2022/04/02 03:36:01;;;;;;;2.97;1.80;;;;;;;1.40;67.40;100705.41;4987345;28;20664;-56
2022/04/02 03:38:29;;;;;;;2.47;1.83;;;;;;;1.48;67.86;100703.13;4987471;28;20267;-57
2022/04/02 03:40:56;;;;;;;6.27;2.40;;;;;;;1.49;67.18;100707.44;4986168;28;20658;-57
2022/04/02 03:43:23;;;;;;;3.77;2.00;;;;;;;1.43;67.91;100708.97;4983878;28;20241;-58
2022/04/02 03:45:49;;;;;;;1.70;1.60;;;;;;;1.43;67.63;100705.50;4987319;28;20655;-56
2022/04/02 03:48:15;;;;;;;2.30;1.70;;;;;;;1.33;67.80;100712.06;4978545;28;20284;-56
2022/04/02 03:50:42;;;;;;;5.60;2.23;;;;;;;1.33;68.22;100719.81;4981565;28;20635;-56
2022/04/02 03:53:22;;;;;;;2.40;1.87;;;;;;;1.24;68.14;100716.91;4986310;28;20268;-56
2022/04/02 03:55:56;;;;;;;3.67;2.27;;;;;;;1.23;68.69;100719.44;4990045;28;20815;-56
2022/04/02 03:58:22;;;;;;;1.93;1.73;;;;;;;1.23;69.29;100725.50;4987153;28;20268;-55
2022/04/02 04:00:48;;;;;;;4.87;1.83;;;;;;;1.28;68.95;100725.66;4985874;28;20334;-58
2022/04/02 04:03:17;;;;;;;3.60;2.07;;;;;;;1.28;68.71;100726.53;4986626;28;20240;-58
2022/04/02 04:05:44;;;;;;;3.77;1.87;;;;;;;1.28;68.52;100726.53;4987655;28;20241;-56
2022/04/02 04:08:10;;;;;;;2.20;1.50;;;;;;;1.30;68.96;100727.50;4982736;28;20255;-57
2022/04/02 04:10:36;;;;;;;1.73;1.63;;;;;;;1.31;68.89;100729.25;4986994;28;20241;-57
2022/04/02 04:13:06;;;;;;;6.70;1.93;;;;;;;1.40;68.67;100728.69;4981453;28;20605;-58
2022/04/02 04:15:32;;;;;;;3.20;1.83;;;;;;;1.36;68.58;100734.56;4980877;28;20644;-57
2022/04/02 04:18:02;;;;;;;3.63;1.93;;;;;;;1.29;68.54;100738.63;4985163;28;20299;-57
2022/04/02 04:20:28;;;;;;;3.03;2.00;;;;;;;1.12;69.25;100734.56;4987123;28;20265;-57
2022/04/02 04:22:54;;;;;;;3.57;1.57;;;;;;;1.18;69.36;100742.53;4987274;28;20311;-57
2022/04/02 04:25:23;;;;;;;4.50;2.07;;;;;;;1.06;69.17;100745.56;4987167;28;20303;-57
2022/04/02 04:27:51;;;;;;;2.00;1.77;;;;;;;1.15;69.81;100745.00;4985077;28;20241;-56
2022/04/02 04:30:19;;;;;;;5.33;2.00;;;;;;;1.16;69.74;100745.09;4984210;28;20256;-57
2022/04/02 04:32:48;;;;;;;3.07;2.03;;;;;;;1.12;69.61;100742.31;4986014;28;20237;-58
2022/04/02 04:35:20;;;;;;;1.80;1.63;;;;;;;1.13;69.77;100747.56;4981011;28;20263;-57
2022/04/02 04:37:46;;;;;;;5.03;1.93;;;;;;;0.99;70.16;100759.09;4984565;28;20242;-57
2022/04/02 04:40:13;;;;;;;4.97;2.83;;;;;;;1.10;69.95;100751.75;4973522;28;20282;-57
2022/04/02 04:42:41;;;;;;;3.20;2.40;;;;;;;1.20;70.05;100759.00;4985893;28;20684;-57
2022/04/02 04:45:08;;;;;;;5.20;2.27;;;;;;;1.11;69.29;100758.66;4985804;28;20322;-57
2022/04/02 04:47:36;;;;;;;2.93;1.83;;;;;;;1.20;69.85;100764.19;4985703;28;20781;-57
2022/04/02 04:50:03;;;;;;;2.40;1.87;;;;;;;1.33;69.21;100763.78;4978578;28;20237;-57
2022/04/02 04:52:29;;;;;;;1.60;1.50;;;;;;;1.15;69.14;100773.47;4986491;28;20300;-60
2022/04/02 04:55:00;;;;;;;2.37;2.17;;;;;;;1.22;69.59;100772.88;4979103;28;20232;-57
2022/04/02 04:57:26;;;;;;;1.90;1.60;;;;;;;1.16;69.98;100772.66;5001217;28;20260;-56
2022/04/02 04:59:52;;;;;;;4.33;2.23;;;;;;;1.20;69.72;100787.47;4985481;28;20283;-57
2022/04/02 05:02:20;;;;;;;1.80;1.70;;;;;;;1.20;69.00;100774.53;4983489;28;20255;-57
2022/04/02 05:04:48;;;;;;;3.83;1.90;;;;;;;1.11;69.59;100779.34;4971316;28;20249;-57
2022/04/02 05:07:14;;;;;;;2.00;1.70;;;;;;;1.15;70.50;100782.09;4981551;28;20245;-56
2022/04/02 05:09:42;;;;;;;3.20;1.70;;;;;;;1.16;69.99;100788.16;4982689;28;20242;-57
2022/04/02 05:12:10;;;;;;;4.30;2.50;;;;;;;1.10;70.20;100787.94;4984643;28;20735;-58
2022/04/02 05:14:36;;;;;;;1.77;1.63;;;;;;;1.13;70.53;100790.63;4980737;28;20617;-57
2022/04/02 05:17:03;;;;;;;1.70;1.53;;;;;;;1.08;70.29;100790.44;4996210;28;20297;-57
2022/04/02 05:19:29;;;;;;;2.87;1.87;;;;;;;1.07;70.70;100800.72;4985249;28;20234;-57
2022/04/02 05:21:57;;;;;;;2.20;2.03;;;;;;;1.01;70.79;100798.78;4986190;28;20237;-57
2022/04/02 05:24:23;;;;;;;2.60;2.00;;;;;;;1.10;70.85;100801.72;4980874;28;20241;-56
2022/04/02 05:26:50;;;;;;;2.73;2.07;;;;;;;1.12;70.55;100801.78;4983074;28;20248;-57
2022/04/02 05:29:16;;;;;;;2.63;1.53;;;;;;;1.10;71.15;100804.31;4977337;28;20258;-57
2022/04/02 05:31:43;;;;;;;1.90;1.80;;;;;;;1.09;71.24;100812.00;4982253;28;20245;-57
2022/04/02 05:34:09;;;;;;;5.47;1.90;;;;;;;1.03;70.95;100812.66;4978322;28;20747;-58
2022/04/02 05:36:37;;;;;;;2.70;2.20;;;;;;;1.11;71.04;100808.66;4984539;28;20583;-56
2022/04/02 05:39:08;;;;;;;5.33;2.07;;;;;;;1.11;71.14;100815.53;4983856;28;20312;-56
2022/04/02 05:41:37;;;;;;;2.50;1.73;;;;;;;1.14;71.17;100821.72;4984704;28;20288;-57
2022/04/02 05:44:03;;;;;;;5.47;2.20;;;;;;;1.17;70.40;100813.19;4982935;28;20320;-57
2022/04/02 05:46:30;;;;;;;3.10;1.77;;;;;;;1.17;71.13;100820.94;4983911;28;20253;-57
2022/04/02 05:48:58;;;;;;;4.00;1.97;;;;;;;1.40;70.66;100821.81;4984117;28;20240;-57
2022/04/02 05:51:25;;;;;;;2.27;1.80;;;;;;;1.34;71.20;100825.06;4984235;28;20774;-57
2022/04/02 05:53:51;;;;;;;5.77;2.23;;;;;;;1.36;70.78;100827.69;4984589;28;20235;-57
2022/04/02 05:56:19;;;;;;;3.73;2.40;;;;;;;1.45;70.30;100822.00;4983631;28;20259;-57
2022/04/02 05:58:48;;;;;;;3.67;3.10;;;;;;;1.41;70.65;100836.53;4982517;28;20368;-56
2022/04/02 06:01:14;;;;;;;3.03;2.13;;;;;;;1.37;70.38;100835.53;4977117;28;20234;-58
2022/04/02 06:03:42;;;;;;;4.93;2.37;;;;;;;1.45;70.55;100835.81;4984345;28;20349;-57
2022/04/02 06:06:08;;;;;;;3.30;1.57;;;;;;;1.58;70.33;100837.13;4984659;28;20233;-57
2022/04/02 06:08:35;;;;;;;2.17;1.97;;;;;;;1.60;70.10;100838.94;4984814;28;20236;-57
2022/04/02 06:11:01;;;;;;;2.77;2.00;;;;;;;1.63;70.19;100840.78;4982582;28;20288;-57
2022/04/02 06:13:29;;;;;;;2.30;2.20;;;;;;;1.69;69.70;100838.41;4984625;28;20315;-57
2022/04/02 06:15:55;;;;;;;1.97;1.77;;;;;;;1.82;69.90;100840.59;4972067;28;20238;-58
2022/04/02 06:18:22;;;;;;;4.17;2.07;;;;;;;1.85;69.08;100848.47;4993389;28;20233;-57
2022/04/02 06:20:48;;;;;;;2.07;1.67;;;;;;;2.03;69.20;100849.97;4985041;28;20315;-56
2022/04/02 06:23:15;;;;;;;7.43;3.20;;;;;;;2.03;68.48;100850.84;4983849;28;20241;-57
2022/04/02 06:25:41;;;;;;;2.40;2.13;;;;;;;2.13;68.01;100846.88;4984156;28;20236;-57
2022/04/02 06:28:08;;;;;;;4.30;1.93;;;;;;;2.27;68.59;100848.22;4984004;28;20662;-57
2022/04/02 06:30:35;;;;;;;4.00;2.50;;;;;;;2.28;67.65;100851.69;4982865;28;20280;-57
2022/04/02 06:33:02;;;;;;;3.87;2.10;;;;;;;2.36;68.18;100858.91;4984553;28;20773;-58
2022/04/02 06:35:28;;;;;;;3.03;1.70;;;;;;;2.54;67.50;100856.06;4982882;28;20241;-57
2022/04/02 06:37:55;;;;;;;2.93;2.10;;;;;;;2.77;66.39;100848.16;4984626;28;20655;-57
2022/04/02 06:40:23;;;;;;;1.30;1.20;;;;;;;2.76;66.36;100857.63;4981075;28;20308;-57
2022/04/02 06:42:49;;;;;;;2.33;1.60;;;;;;;2.78;67.30;100856.00;4985134;28;20248;-57
2022/04/02 06:45:15;;;;;;;2.20;1.70;;;;;;;3.04;67.80;100858.53;4981081;28;20710;-58
2022/04/02 06:47:43;;;;;;;2.70;1.97;;;;;;;3.28;66.06;100863.59;4982985;28;20229;-56
2022/04/02 06:50:11;;;;;;;4.40;2.10;;;;;;;3.15;64.61;100864.91;4983403;28;20236;-57
2022/04/02 06:52:39;;;;;;;3.77;1.70;;;;;;;3.51;64.88;100861.66;4982158;28;20237;-57
2022/04/02 06:55:09;;;;;;;2.00;1.60;;;;;;;3.37;62.81;100853.50;4985417;28;20233;-56
2022/04/02 06:57:41;;;;;;;4.63;2.30;;;;;;;3.21;64.31;100852.16;4990188;28;20227;-57
2022/04/02 07:00:08;;;;;;;1.77;1.67;;;;;;;3.21;63.71;100852.16;4988348;28;20588;-59
2022/04/02 07:02:40;;;;;;;1.70;1.57;;;;;;;3.21;63.62;100856.47;4988523;28;20233;-62
2022/04/02 07:05:10;;;;;;;2.83;1.70;;;;;;;3.34;64.07;100856.88;4983973;28;20310;-61
2022/04/02 07:07:39;;;;;;;2.10;1.80;;;;;;;3.47;63.19;100858.09;4987440;28;20956;-59
2022/04/02 07:10:06;;;;;;;3.50;2.03;;;;;;;3.41;63.46;100862.25;4985896;28;20267;-60
2022/04/02 07:12:33;;;;;;;3.43;2.30;;;;;;;3.44;62.67;100862.31;4988086;28;20245;-60
2022/04/02 07:14:59;;;;;;;3.57;1.67;;;;;;;3.51;62.82;100862.56;4987688;28;20696;-60
2022/04/02 07:17:28;;;;;;;2.07;1.87;;;;;;;3.57;62.69;100862.72;4991408;28;20257;-60
2022/04/02 07:19:56;;;;;;;2.30;2.10;;;;;;;3.54;63.01;100872.16;4985182;28;20787;-62
2022/04/02 07:22:26;;;;;;;5.13;1.90;;;;;;;3.66;62.54;100879.44;4990950;28;20316;-61
2022/04/02 07:24:56;;;;;;;1.70;1.60;;;;;;;3.59;62.28;100874.06;4985916;28;20239;-62
2022/04/02 07:27:24;;;;;;;3.23;1.63;;;;;;;3.59;61.76;100866.28;4980082;28;20238;-62
2022/04/02 07:29:57;;;;;;;1.90;1.70;;;;;;;3.67;61.54;100874.28;4983577;28;20774;-61
2022/04/02 07:32:26;;;;;;;4.63;1.90;;;;;;;3.76;61.32;100871.09;4974143;28;20237;-62
2022/04/02 07:34:54;;;;;;;2.00;1.73;;;;;;;3.81;62.18;100872.06;4989081;28;20283;-64
2022/04/02 07:37:29;;;;;;;4.93;2.37;;;;;;;3.96;62.26;100876.81;4984349;28;20296;-62
2022/04/02 07:40:03;;;;;;;4.37;2.10;;;;;;;3.90;60.32;100887.06;4984105;28;20318;-62
2022/04/02 07:42:36;;;;;;;2.93;1.87;;;;;;;3.87;61.81;100877.47;4978200;28;20294;-62
2022/04/02 07:45:07;;;;;;;2.20;2.00;;;;;;;3.83;60.32;100881.69;4984059;28;20269;-60
2022/04/02 07:47:35;;;;;;;3.70;2.00;;;;;;;3.78;60.79;100883.25;4985293;28;20296;-60
2022/04/02 07:50:09;;;;;;;1.73;1.63;;;;;;;3.75;61.86;100879.69;4984796;28;20266;-60
2022/04/02 07:52:37;;;;;;;2.73;2.27;;;;;;;3.86;60.76;100882.59;4985901;28;20252;-61
2022/04/02 07:55:07;;;;;;;3.10;2.00;;;;;;;3.90;60.36;100882.75;4983355;28;20237;-61
2022/04/02 07:57:35;;;;;;;2.67;1.90;;;;;;;3.90;59.59;100881.88;4988305;28;20256;-61
2022/04/02 08:00:03;;;;;;;5.20;1.90;;;;;;;3.96;59.30;100885.50;4988415;28;20284;-61
2022/04/02 08:02:37;;;;;;;2.50;1.40;;;;;;;4.02;58.94;100888.25;4986336;28;20281;-60
2022/04/02 08:05:06;;;;;;;2.30;1.73;;;;;;;4.16;59.40;100882.56;4986054;28;20238;-61
2022/04/02 08:07:34;;;;;;;2.83;2.10;;;;;;;4.03;58.73;100883.94;4986299;28;20254;-62
2022/04/02 08:10:06;;;;;;;1.30;1.20;;;;;;;4.13;56.94;100888.56;4984787;28;20250;-61
2022/04/02 08:12:35;;;;;;;1.97;1.37;;;;;;;4.28;57.08;100886.41;4984933;28;20222;-61
2022/04/02 08:15:03;;;;;;;3.93;2.13;;;;;;;4.36;55.15;100890.91;4984767;28;20233;-61
2022/04/02 08:17:30;;;;;;;1.73;1.53;;;;;;;4.36;55.15;100896.13;4978959;28;20241;-61
2022/04/02 08:19:58;;;;;;;1.70;1.60;;;;;;;4.49;53.40;100890.38;4984753;28;20659;-62
2022/04/02 08:22:25;;;;;;;1.97;1.70;;;;;;;4.63;54.71;100886.41;4985681;28;20308;-62
2022/04/02 08:24:51;;;;;;;2.23;1.33;;;;;;;4.73;51.07;100896.22;4985559;28;20319;-66
2022/04/02 08:27:31;;;;;;;3.07;1.30;;;;;;;4.60;49.90;100893.25;4981435;28;20672;-62
2022/04/02 08:30:05;;;;;;;7.27;1.40;;;;;;;4.58;50.35;100893.22;4985912;28;20230;-66
2022/04/02 08:32:42;;;;;;;1.23;1.13;;;;;;;4.46;50.38;100895.53;4983412;28;20234;-66
2022/04/02 08:35:09;;;;;;;2.40;1.40;;;;;;;4.44;49.21;100903.25;4983477;28;20242;-63
2022/04/02 08:38:04;;;;;;;1.33;1.23;;;;;;;4.57;48.77;100901.88;4986276;28;20238;-65
2022/04/02 08:41:13;;;;;;;2.17;1.20;;;;;;;4.48;48.98;100910.31;4979549;28;20252;-63
2022/04/02 08:44:22;;;;;;;1.27;1.17;;;;;;;4.50;48.92;100902.56;4985568;28;20237;-65
2022/04/02 08:47:11;;;;;;;1.77;1.67;;;;;;;4.88;51.29;100905.22;4917891;28;25737;-63
2022/04/02 08:49:40;;;;;;;2.60;1.93;;;;;;;4.82;48.15;100905.09;4983195;28;20237;-67
2022/04/02 08:52:29;;;;;;;2.00;1.43;;;;;;;4.79;46.65;100913.69;4980239;28;20265;-65
2022/04/02 08:55:08;;;;;;;2.23;1.43;;;;;;;4.78;45.18;100915.44;4978602;28;20326;-66
2022/04/02 08:57:48;;;;;;;3.37;1.40;;;;;;;4.77;45.92;100902.38;4983644;28;20217;-67
2022/04/02 09:00:15;;;;;;;2.47;1.40;;;;;;;4.77;45.90;100913.69;5005472;28;20922;-66
2022/04/02 09:03:07;;;;;;;4.90;1.50;;;;;;;4.97;46.76;100906.34;4983459;28;20300;-65
2022/04/02 09:05:34;;;;;;;3.07;1.77;;;;;;;5.23;45.01;100914.78;4985810;28;20455;-65
2022/04/02 09:08:19;;;;;;;4.20;1.67;;;;;;;5.53;44.37;100916.31;4967042;28;20242;-66
2022/04/02 09:11:23;;;;;;;1.37;1.27;;;;;;;5.69;43.27;100915.84;4979862;28;20248;-65
2022/04/02 09:14:26;;;;;;;1.80;1.63;;;;;;;5.84;43.04;100901.38;4969503;28;20263;-65
2022/04/02 09:17:00;;;;;;;2.40;1.30;;;;;;;5.88;42.52;100906.66;4965478;28;20328;-66
2022/04/02 09:19:40;;;;;;;2.43;1.43;;;;;;;6.02;44.07;100909.59;4981025;28;20868;-65
2022/04/02 09:22:08;;;;;;;4.70;1.70;;;;;;;5.99;42.57;100906.91;4977814;28;20700;-64
2022/04/02 09:25:01;;;;;;;2.30;1.80;;;;;;;5.99;42.57;100917.34;4979093;28;20812;-64
2022/04/02 09:27:59;;;;;;;4.50;1.50;;;;;;;5.92;42.26;100912.81;4985182;28;20245;-57
2022/04/02 09:30:43;;;;;;;1.97;1.57;;;;;;;6.08;41.12;100916.66;4980892;28;20241;-56
2022/04/02 09:33:28;;;;;;;2.50;2.13;;;;;;;6.50;42.07;100913.13;4979339;28;20759;-58
2022/04/02 09:36:27;;;;;;;2.97;1.97;;;;;;;6.68;41.02;100909.13;4977275;28;20455;-57
2022/04/02 09:39:05;;;;;;;1.70;1.40;;;;;;;6.74;41.42;100907.44;4982451;28;20692;-58
2022/04/02 09:42:09;;;;;;;2.27;1.93;;;;;;;6.98;40.05;100907.84;4981560;28;20230;-58
2022/04/02 09:44:49;;;;;;;2.20;2.00;;;;;;;7.01;40.99;100913.13;4968972;28;20591;-56
2022/04/02 09:47:22;;;;;;;1.87;1.67;;;;;;;7.23;38.86;100911.78;4980701;28;20286;-57
2022/04/02 09:50:09;;;;;;;1.70;1.60;;;;;;;6.83;38.70;100902.41;4981500;28;20850;-58
2022/04/02 09:52:39;;;;;;;2.83;1.93;;;;;;;6.89;39.03;100906.00;4976703;28;20754;-56
2022/04/02 09:55:08;;;;;;;1.67;1.57;;;;;;;6.99;39.96;100913.97;4982455;28;20641;-56
2022/04/02 09:57:48;;;;;;;3.10;1.70;;;;;;;6.82;38.93;100909.34;4981188;28;20407;-57
2022/04/02 10:00:16;;;;;;;3.03;2.00;;;;;;;6.64;40.75;100907.31;4993780;23;20317;-58
2022/04/02 10:03:02;;;;;;;4.57;1.87;;;;;;;6.59;41.53;100908.94;4981352;28;20637;-59
2022/04/02 10:05:37;;;;;;;3.53;1.70;;;;;;;6.56;39.91;100908.88;4982284;28;20238;-59
2022/04/02 10:08:06;;;;;;;2.97;2.10;;;;;;;6.81;39.56;100898.88;4975599;28;20213;-57
2022/04/02 10:10:33;;;;;;;1.67;1.57;;;;;;;6.83;40.34;100908.50;4975865;28;20281;-56
2022/04/02 10:13:00;;;;;;;1.83;1.73;;;;;;;6.97;40.51;100913.06;4962563;28;20237;-56
2022/04/02 10:15:26;;;;;;;2.03;1.57;;;;;;;6.97;40.47;100906.13;4963667;28;20234;-57
2022/04/02 10:17:53;;;;;;;1.90;1.70;;;;;;;7.06;39.07;100900.19;4963292;28;20289;-57
2022/04/02 10:20:23;;;;;;;1.87;1.70;;;;;;;6.97;39.17;100900.88;4962678;28;20262;-56
2022/04/02 10:22:57;;;;;;;2.27;2.00;;;;;;;7.08;38.88;100901.94;4963129;28;20234;-57
2022/04/02 10:25:28;;;;;;;2.30;2.10;;;;;;;7.11;39.29;100899.38;4959618;28;20678;-57
2022/04/02 10:27:55;;;;;;;3.33;2.20;;;;;;;6.99;39.39;100903.53;4963234;28;20321;-56
2022/04/02 10:30:25;;;;;;;2.17;1.97;;;;;;;7.11;39.07;100888.94;4962006;28;20254;-57
2022/04/02 10:32:57;;;;;;;2.10;1.67;;;;;;;7.16;38.96;100887.28;4962616;28;20255;-56
2022/04/02 10:35:25;;;;;;;2.37;1.83;;;;;;;7.30;38.02;100892.72;4961693;28;20253;-56
2022/04/02 10:38:02;;;;;;;1.80;1.70;;;;;;;7.67;38.21;100879.28;4963083;28;20242;-56
2022/04/02 10:40:31;;;;;;;2.23;1.80;;;;;;;7.34;38.11;100884.06;4962502;28;20223;-56
2022/04/02 10:43:02;;;;;;;6.83;2.60;;;;;;;7.08;38.93;100878.44;4962153;28;20524;-57
2022/04/02 10:45:29;;;;;;;2.70;2.37;;;;;;;7.47;39.79;100882.50;4962968;28;20661;-55
2022/04/02 10:48:09;;;;;;;5.77;2.10;;;;;;;7.36;38.01;100873.63;4965195;28;20278;-56
2022/04/02 10:50:37;;;;;;;2.33;1.90;;;;;;;7.33;38.21;100876.19;4959738;28;20436;-58
2022/04/02 10:53:05;;;;;;;2.27;2.07;;;;;;;7.31;38.36;100876.19;4965167;28;20258;-58
2022/04/02 10:55:34;;;;;;;3.00;2.03;;;;;;;7.28;39.60;100890.94;4962467;28;20622;-55
2022/04/02 10:58:01;;;;;;;2.27;1.50;;;;;;;7.16;38.46;100887.28;4966032;28;20273;-58
2022/04/02 11:00:28;;;;;;;4.80;2.00;;;;;;;7.18;37.80;100887.28;4963544;28;20701;-59
2022/04/02 11:03:03;;;;;;;1.73;1.63;;;;;;;7.30;37.44;100878.75;4962378;28;20344;-58
2022/04/02 11:05:35;;;;;;;3.00;1.90;;;;;;;7.04;38.06;100892.31;4962708;28;20538;-60
2022/04/02 11:08:04;;;;;;;3.25;2.25;;;;;;;7.01;37.47;100889.63;4961825;28;20485;-60
2022/04/02 11:10:34;;;;;;;3.67;2.00;;;;;;;6.99;37.45;100899.19;4962001;28;20755;-61
2022/04/02 11:13:02;;;;;;;1.73;1.63;;;;;;;6.80;38.79;100887.56;4962588;28;20239;-58
2022/04/02 11:15:28;;;;;;;2.20;1.60;;;;;;;7.05;37.98;100888.81;4961869;28;20854;-59
2022/04/02 11:17:57;;;;;;;1.73;1.63;;;;;;;7.05;38.79;100893.19;4961109;28;20713;-59
2022/04/02 11:20:25;;;;;;;1.50;1.40;;;;;;;7.19;39.62;100891.66;4961305;28;20245;-58
2022/04/02 11:23:05;;;;;;;1.57;1.47;;;;;;;7.24;38.64;100891.75;4964508;28;20709;-60
2022/04/02 11:25:39;;;;;;;2.17;1.83;;;;;;;7.60;37.13;100883.53;4961930;28;20242;-59
2022/04/02 11:28:11;;;;;;;1.47;1.37;;;;;;;7.62;37.48;100885.34;4960904;28;20247;-60
2022/04/02 11:30:39;;;;;;;2.10;1.50;;;;;;;7.36;38.54;100894.53;4962274;28;20242;-59
2022/04/02 11:33:07;;;;;;;1.67;1.37;;;;;;;7.28;39.36;100883.97;4960791;28;20651;-59
2022/04/02 11:35:38;;;;;;;2.10;1.40;;;;;;;6.89;40.92;100897.28;4960673;28;20239;-58
2022/04/02 11:38:10;;;;;;;3.23;1.90;;;;;;;6.79;41.36;100903.19;4963773;28;20226;-61
2022/04/02 11:40:41;;;;;;;2.00;1.80;;;;;;;6.75;43.41;100911.84;4964519;28;20241;-58
2022/04/02 11:43:08;;;;;;;2.03;1.80;;;;;;;6.48;43.88;100904.38;4966677;28;20644;-59
2022/04/02 11:45:37;;;;;;;2.17;1.73;;;;;;;6.40;44.81;100912.94;4963724;28;20457;-60
2022/04/02 11:48:12;;;;;;;1.47;1.37;;;;;;;6.52;45.28;100916.63;4965046;28;20231;-61
2022/04/02 11:50:40;;;;;;;2.73;1.67;;;;;;;6.58;45.21;100911.53;4966838;28;20257;-59